createdAt,value
2023-04-25T00:02:12.758Z,23.92
2023-04-25T00:04:43.411Z,23.92
2023-04-25T00:07:14.438Z,23.91
2023-04-25T00:09:45.749Z,23.91
2023-04-25T00:12:15.820Z,23.90
2023-04-25T00:15:00.530Z,23.90
2023-04-25T00:20:16.270Z,23.91
2023-04-25T00:22:47.850Z,23.91
2023-04-25T00:25:18.646Z,23.89
2023-04-25T00:27:49.082Z,23.89
2023-04-25T00:30:19.110Z,23.88
2023-04-25T00:33:01.315Z,23.88
2023-04-25T00:35:42.598Z,23.87
2023-04-25T00:38:13.545Z,23.86
2023-04-25T00:40:45.048Z,23.86
2023-04-25T00:43:35.895Z,23.86
2023-04-25T00:46:06.063Z,23.84
2023-04-25T00:48:38.649Z,23.84
2023-04-25T00:51:57.968Z,23.83
2023-04-25T00:54:38.918Z,23.83
2023-04-25T00:57:27.572Z,23.83
2023-04-25T01:00:50.449Z,23.81
2023-04-25T01:03:26.103Z,23.82
2023-04-25T01:06:25.015Z,23.81
2023-04-25T01:09:16.117Z,23.79
2023-04-25T01:15:44.091Z,23.77
2023-04-25T01:18:57.967Z,23.69
2023-04-25T01:21:31.732Z,23.75
2023-04-25T01:24:15.051Z,23.74
2023-04-25T01:27:21.358Z,23.73
2023-04-25T01:36:34.828Z,23.75
2023-04-25T01:39:09.944Z,23.71
2023-04-25T01:42:04.453Z,23.70
2023-04-25T01:47:46.374Z,23.70
2023-04-25T01:50:17.992Z,23.68
2023-04-25T01:52:49.475Z,23.68
2023-04-25T01:55:19.882Z,23.67
2023-04-25T01:57:50.357Z,23.67
2023-04-25T02:00:39.555Z,23.66
2023-04-25T02:03:16.746Z,23.66
2023-04-25T02:06:36.454Z,23.65
2023-04-25T02:09:28.716Z,23.65
2023-04-25T02:12:39.534Z,23.64
2023-04-25T02:15:14.849Z,23.64
2023-04-25T02:18:18.483Z,23.62
2023-04-25T02:21:32.936Z,23.61
2023-04-25T02:24:13.292Z,23.61
2023-04-25T02:27:12.395Z,23.53
2023-04-25T02:30:14.532Z,23.58
2023-04-25T02:33:04.305Z,23.57
2023-04-25T02:35:34.533Z,23.58
2023-04-25T02:38:04.694Z,23.56
2023-04-25T02:40:34.811Z,23.56
2023-04-25T02:43:07.581Z,23.55
2023-04-25T02:45:43.480Z,23.54
2023-04-25T02:48:29.315Z,23.54
2023-04-25T02:51:07.031Z,23.53
2023-04-25T02:53:37.254Z,23.53
2023-04-25T02:56:07.988Z,23.51
2023-04-25T02:58:38.227Z,23.51
2023-04-25T03:01:12.038Z,23.49
2023-04-25T03:03:42.519Z,23.50
2023-04-25T03:06:23.982Z,23.49
2023-04-25T03:09:39.093Z,23.49
2023-04-25T03:12:20.893Z,23.48
2023-04-25T03:15:20.519Z,23.48
2023-04-25T03:18:16.966Z,23.47
2023-04-25T03:20:48.851Z,23.44
2023-04-25T03:23:18.957Z,23.43
2023-04-25T03:25:50.311Z,23.42
2023-04-25T03:28:22.095Z,23.41
2023-04-25T03:30:58.526Z,23.41
2023-04-25T03:33:33.828Z,23.40
2023-04-25T03:36:39.129Z,23.40
2023-04-25T03:39:30.643Z,23.39
2023-04-25T03:42:33.443Z,23.24
2023-04-25T03:45:12.340Z,23.37
2023-04-25T03:47:44.600Z,23.37
2023-04-25T03:50:35.083Z,23.35
2023-04-25T03:53:04.985Z,23.35
2023-04-25T03:55:37.641Z,23.34
2023-04-25T03:58:07.707Z,23.33
2023-04-25T04:01:14.758Z,23.33
2023-04-25T04:04:21.251Z,23.31
2023-04-25T04:07:00.568Z,23.31
2023-04-25T04:12:50.332Z,23.28
2023-04-25T04:15:42.131Z,23.27
2023-04-25T04:28:06.727Z,23.22
2023-04-25T04:31:02.720Z,23.22
2023-04-25T04:34:12.616Z,23.21
2023-04-25T04:37:08.741Z,23.19
2023-04-25T04:39:52.296Z,23.18
2023-04-25T04:42:48.047Z,23.18
2023-04-25T04:45:47.201Z,23.18
2023-04-25T04:48:56.306Z,23.17
2023-04-25T04:52:02.265Z,23.16
2023-04-25T04:54:48.233Z,23.14
2023-04-25T04:58:23.771Z,23.13
2023-04-25T05:00:54.799Z,23.12
2023-04-25T05:07:20.927Z,23.10
2023-04-25T05:10:14.325Z,23.11
2023-04-25T05:12:45.953Z,23.09
2023-04-25T05:18:52.300Z,23.06
2023-04-25T05:21:47.272Z,23.06
2023-04-25T05:24:52.497Z,23.04
2023-04-25T05:27:53.520Z,22.96
2023-04-25T05:35:48.736Z,22.99
2023-04-25T05:38:18.507Z,22.99
2023-04-25T05:40:48.541Z,22.94
2023-04-25T05:43:18.614Z,22.98
2023-04-25T05:46:00.783Z,22.96
2023-04-25T05:48:42.582Z,22.97
2023-04-25T05:51:13.312Z,22.96
2023-04-25T05:53:44.224Z,22.95
2023-04-25T05:56:14.383Z,22.94
2023-04-25T05:58:44.501Z,22.94
2023-04-25T06:01:16.135Z,22.95
2023-04-25T06:04:12.476Z,22.93
2023-04-25T06:07:02.163Z,22.93
2023-04-25T06:10:16.540Z,22.91
2023-04-25T06:15:59.192Z,22.90
2023-04-25T06:22:04.873Z,22.88
2023-04-25T06:31:13.793Z,22.85
2023-04-25T06:34:09.902Z,22.83
2023-04-25T06:37:24.400Z,22.82
2023-04-25T06:39:54.355Z,22.81
2023-04-25T06:43:11.554Z,22.79
2023-04-25T06:46:13.799Z,22.80
2023-04-25T06:49:14.497Z,22.79
2023-04-25T06:52:22.313Z,22.70
2023-04-25T06:55:07.359Z,22.76
2023-04-25T06:58:07.502Z,22.75
2023-04-25T07:01:16.514Z,22.74
2023-04-25T07:07:05.636Z,22.76
2023-04-25T07:09:54.282Z,22.71
2023-04-25T07:12:24.556Z,22.71
2023-04-25T07:14:57.572Z,22.69
2023-04-25T07:17:28.232Z,22.69
2023-04-25T07:19:59.383Z,22.67
2023-04-25T07:22:30.373Z,22.68
2023-04-25T07:25:18.922Z,22.68
2023-04-25T07:28:41.624Z,22.67
2023-04-25T07:31:23.378Z,22.67
2023-04-25T07:34:03.276Z,22.67
2023-04-25T07:39:17.271Z,22.65
2023-04-25T07:41:47.299Z,22.64
2023-04-25T07:44:18.885Z,22.63
2023-04-25T07:46:49.002Z,22.62
2023-04-25T07:49:23.111Z,22.62
2023-04-25T07:52:41.376Z,22.61
2023-04-25T07:55:10.679Z,22.60
2023-04-25T07:58:04.973Z,22.60
2023-04-25T08:00:35.862Z,22.49
2023-04-25T08:03:08.685Z,22.57
2023-04-25T08:05:40.316Z,22.56
2023-04-25T08:11:02.595Z,22.60
2023-04-25T08:13:39.061Z,22.54
2023-04-25T08:16:39.852Z,22.53
2023-04-25T08:22:53.446Z,22.52
2023-04-25T08:25:43.364Z,22.51
2023-04-25T08:28:38.042Z,22.51
2023-04-25T08:31:44.858Z,22.49
2023-04-25T08:37:43.449Z,22.48
2023-04-25T08:40:30.433Z,22.44
2023-04-25T08:46:33.518Z,22.44
2023-04-25T08:49:25.768Z,22.43
2023-04-25T08:52:23.559Z,22.43
2023-04-25T08:55:53.209Z,22.42
2023-04-25T08:58:30.456Z,22.41
2023-04-25T09:04:25.779Z,22.39
2023-04-25T09:10:43.058Z,22.41
2023-04-25T09:13:20.008Z,22.37
2023-04-25T09:16:23.204Z,22.35
2023-04-25T09:19:39.743Z,22.35
2023-04-25T09:22:24.466Z,22.33
2023-04-25T09:25:19.431Z,22.32
2023-04-25T09:28:07.792Z,22.31
2023-04-25T09:30:38.101Z,22.30
2023-04-25T09:33:10.009Z,22.29
2023-04-25T09:35:40.700Z,22.29
2023-04-25T09:40:58.566Z,22.31
2023-04-25T09:43:33.211Z,22.26
2023-04-25T09:46:16.914Z,22.25
2023-04-25T09:48:50.885Z,22.25
2023-04-25T09:51:20.838Z,22.25
2023-04-25T09:53:53.728Z,22.24
2023-04-25T09:56:24.895Z,22.24
2023-04-25T09:58:59.054Z,22.23
2023-04-25T10:01:32.972Z,22.23
2023-04-25T10:04:10.702Z,22.21
2023-04-25T10:06:41.777Z,22.22
2023-04-25T10:09:11.964Z,22.21
2023-04-25T10:11:42.080Z,22.21
2023-04-25T10:14:12.252Z,22.20
2023-04-25T10:16:42.436Z,22.19
2023-04-25T10:19:15.741Z,22.19
2023-04-25T10:21:51.629Z,22.17
2023-04-25T10:24:22.370Z,22.05
2023-04-25T10:26:52.531Z,22.17
2023-04-25T10:29:27.026Z,22.16
2023-04-25T10:32:03.596Z,22.15
2023-04-25T10:34:51.207Z,22.13
2023-04-25T10:37:27.176Z,22.13
2023-04-25T10:39:57.256Z,22.12
2023-04-25T10:42:27.608Z,22.11
2023-04-25T10:45:05.585Z,22.10
2023-04-25T10:47:42.067Z,22.09
2023-04-25T10:50:12.858Z,22.09
2023-04-25T10:52:46.537Z,22.08
2023-04-25T10:55:26.573Z,22.09
2023-04-25T11:00:34.187Z,22.07
2023-04-25T11:03:04.539Z,22.05
2023-04-25T11:05:50.923Z,22.05
2023-04-25T11:08:15.992Z,21.83
2023-04-25T11:11:06.372Z,21.92
2023-04-25T11:13:35.097Z,21.92
2023-04-25T11:16:47.916Z,22.01
2023-04-25T11:19:51.327Z,22.02
2023-04-25T11:22:34.011Z,22.00
2023-04-25T11:27:58.980Z,21.98
2023-04-25T11:30:30.636Z,21.97
2023-04-25T11:33:02.527Z,21.98
2023-04-25T11:38:22.442Z,21.96
2023-04-25T11:49:49.732Z,21.93
2023-04-25T11:53:11.553Z,21.93
2023-04-25T11:59:00.640Z,21.89
2023-04-25T12:01:36.722Z,21.93
2023-04-25T12:04:52.916Z,21.96
2023-04-25T12:07:36.294Z,22.00
2023-04-25T12:13:41.490Z,22.10
2023-04-25T12:16:17.943Z,22.19
2023-04-25T12:18:44.848Z,22.26
2023-04-25T12:21:14.993Z,22.34
2023-04-25T12:23:45.322Z,22.41
2023-04-25T12:26:17.327Z,22.49
2023-04-25T12:28:56.591Z,22.52
2023-04-25T12:31:38.885Z,22.65
2023-04-25T12:34:09.188Z,22.69
2023-04-25T12:36:39.190Z,22.83
2023-04-25T12:39:09.779Z,22.89
2023-04-25T12:41:39.848Z,22.94
2023-04-25T12:47:16.555Z,23.04
2023-04-25T12:53:09.430Z,23.13
2023-04-25T12:56:06.442Z,23.19
2023-04-25T13:02:32.773Z,23.26
2023-04-25T13:07:52.700Z,23.41
2023-04-25T13:13:11.358Z,23.44
2023-04-25T13:27:37.762Z,23.71
2023-04-25T13:30:12.475Z,23.67
2023-04-25T13:32:42.862Z,23.66
2023-04-25T13:35:17.268Z,23.66
2023-04-25T13:40:49.239Z,23.65
2023-04-25T13:43:19.552Z,23.66
2023-04-25T13:45:49.954Z,23.65
2023-04-25T13:48:20.527Z,23.65
2023-04-25T13:53:33.587Z,23.65
2023-04-25T13:56:05.124Z,23.65
2023-04-25T13:58:56.063Z,23.65
2023-04-25T14:01:28.476Z,23.64
2023-04-25T14:03:58.634Z,23.64
2023-04-25T14:06:29.570Z,23.63
2023-04-25T14:08:59.566Z,23.59
2023-04-25T14:11:33.340Z,23.63
2023-04-25T14:15:03.384Z,23.61
2023-04-25T14:17:40.413Z,23.52
2023-04-25T14:20:13.802Z,23.56
2023-04-25T14:23:04.636Z,23.59
2023-04-25T14:25:45.670Z,23.58
2023-04-25T14:28:15.934Z,23.58
2023-04-25T14:30:45.921Z,23.57
2023-04-25T14:33:16.313Z,23.55
2023-04-25T14:35:46.823Z,23.55
2023-04-25T14:38:33.367Z,23.54
2023-04-25T14:41:20.137Z,23.54
2023-04-25T14:43:59.470Z,23.54
2023-04-25T14:46:33.183Z,23.53
2023-04-25T14:49:05.020Z,23.51
2023-04-25T14:51:35.482Z,23.50
2023-04-25T14:54:05.675Z,23.48
2023-04-25T14:56:36.610Z,23.49
2023-04-25T14:59:12.129Z,23.47
2023-04-25T15:01:47.301Z,23.45
2023-04-25T15:04:16.150Z,23.46
2023-04-25T15:07:13.589Z,23.44
2023-04-25T15:09:43.360Z,23.42
2023-04-25T15:12:13.358Z,23.42
2023-04-25T15:14:43.369Z,23.40
2023-04-25T15:17:21.166Z,23.39
2023-04-25T15:20:05.368Z,23.38
2023-04-25T15:22:35.697Z,23.38
2023-04-25T15:25:08.392Z,23.36
2023-04-25T15:27:45.418Z,23.35
2023-04-25T15:30:18.859Z,23.34
2023-04-25T15:32:48.803Z,23.33
2023-04-25T15:35:18.816Z,23.31
2023-04-25T15:38:10.792Z,23.30
2023-04-25T15:40:38.781Z,23.30
2023-04-25T15:43:10.368Z,23.29
2023-04-25T15:45:40.579Z,23.30
2023-04-25T15:48:10.502Z,23.34
2023-04-25T15:50:40.605Z,23.37
2023-04-25T15:53:18.215Z,23.40
2023-04-25T15:55:48.509Z,23.41
2023-04-25T15:58:19.977Z,23.46
2023-04-25T16:00:53.125Z,23.48
2023-04-25T16:03:24.802Z,23.51
2023-04-25T16:05:56.136Z,23.54
2023-04-25T16:08:27.000Z,23.57
2023-04-25T16:11:20.950Z,23.59
2023-04-25T16:14:18.168Z,23.63
2023-04-25T16:16:24.010Z,23.66
2023-04-25T16:18:54.001Z,23.69
2023-04-25T16:21:23.930Z,23.72
2023-04-25T16:23:55.381Z,23.71
2023-04-25T16:26:49.136Z,23.70
2023-04-25T16:29:20.941Z,23.71
2023-04-25T16:31:51.093Z,23.69
2023-04-25T16:34:22.260Z,23.68
2023-04-25T16:36:56.559Z,23.67
2023-04-25T16:39:33.815Z,23.67
2023-04-25T16:42:04.735Z,23.67
2023-04-25T16:45:02.266Z,23.67
2023-04-25T23:36:45.013Z,23.17
2023-04-25T23:42:40.713Z,23.17
2023-04-25T23:45:19.418Z,23.15
2023-04-25T23:47:49.683Z,23.15
2023-04-25T23:50:21.236Z,23.14
2023-04-25T23:52:51.260Z,23.12
2023-04-25T23:55:21.245Z,23.13
2023-04-25T23:57:51.247Z,23.12
